Time;durP1;ratioP1;P1;durP2;ratioP2;P2;SDS_P1;SDS_P2;PMS_P1;PMS_P2;Temp;Humidity;BMP_temperature;BMP_pressure;BME280_temperature;BME280_humidity;BME280_pressure;Samples;Min_cycle;Max_cycle;Signal;HPM_P1;HPM_P2
2023/06/12 00:00:51;;;;;;;;;;;;;;;;;;139939;1258;22154;-80
2023/06/12 00:04:12;;;;;;;;;;;;;;;;;;139931;1258;22462;-81
2023/06/12 00:07:13;;;;;;;;;;;;;;;;;;139979;1254;22348;-81
2023/06/12 00:10:14;;;;;;;;;;;;;;;;;;139976;1258;22164;-81
2023/06/12 00:13:15;;;;;;;;;;;;;;;;;;139964;1258;22227;-82
2023/06/12 00:16:16;;;;;;;;;;;;;;;;;;140007;1258;22176;-82
2023/06/12 00:19:18;;;;;;;;;;;;;;;;;;140000;1258;22237;-82
2023/06/12 00:22:19;;;;;;;;;;;;;;;;;;140018;1258;22165;-82
2023/06/12 00:25:21;;;;;;;;;;;;;;;;;;140004;1258;22756;-81
2023/06/12 00:28:22;;;;;;;;;;;;;;;;;;140005;1250;22184;-81
2023/06/12 00:31:23;;;;;;;;;;;;;;;;;;140020;1258;22167;-82
2023/06/12 00:34:24;;;;;;;;;;;;;;;;;;140027;1258;22821;-82
2023/06/12 00:37:25;;;;;;;;;;;;;;;;;;140024;1254;22752;-81
2023/06/12 00:40:26;;;;;;;;;;;;;;;;;;140034;1258;22693;-81
2023/06/12 00:43:27;;;;;;;;;;;;;;;;;;140044;1258;22163;-80
2023/06/12 00:46:28;;;;;;;;;;;;;;;;;;140025;1258;22160;-80
2023/06/12 00:49:29;;;;;;;;;;;;;;;;;;140041;1258;22273;-80
2023/06/12 00:52:34;;;;;;;;;;;;;;;;;;140027;1258;22185;-80
2023/06/12 00:55:35;;;;;;;;;;;;;;;;;;139996;1258;22650;-80
2023/06/12 00:58:36;;;;;;;;;;;;;;;;;;140012;1258;22298;-80
2023/06/12 01:01:38;;;;;;;;;;;;;;;;;;140021;1258;22669;-80
2023/06/12 01:04:42;;;;;;;;;;;;;;;;;;139993;1258;22304;-80
2023/06/12 01:07:43;;;;;;;;;;;;;;;;;;140032;1258;22357;-81
2023/06/12 01:10:44;;;;;;;;;;;;;;;;;;140039;1258;22720;-81
2023/06/12 01:13:46;;;;;;;;;;;;;;;;;;140032;1258;22545;-80
2023/06/12 01:16:47;;;;;;;;;;;;;;;;;;140007;1258;22196;-80
2023/06/12 01:19:48;;;;;;;;;;;;;;;;;;140016;1258;22249;-79
2023/06/12 01:22:49;;;;;;;;;;;;;;;;;;140012;1258;22161;-80
2023/06/12 01:25:50;;;;;;;;;;;;;;;;;;140029;1258;22257;-80
2023/06/12 01:28:52;;;;;;;;;;;;;;;;;;140040;1258;22295;-80
2023/06/12 01:31:56;;;;;;;;;;;;;;;;;;140006;1258;22252;-80
2023/06/12 01:34:57;;;;;;;;;;;;;;;;;;140033;1258;22212;-80
2023/06/12 01:37:58;;;;;;;;;;;;;;;;;;140031;1258;22377;-80
2023/06/12 01:41:00;;;;;;;;;;;;;;;;;;140021;1258;22228;-80
2023/06/12 01:44:01;;;;;;;;;;;;;;;;;;140033;1258;22177;-80
2023/06/12 01:47:03;;;;;;;;;;;;;;;;;;140027;1258;22189;-80
2023/06/12 01:50:04;;;;;;;;;;;;;;;;;;139993;1258;22169;-80
2023/06/12 01:53:07;;;;;;;;;;;;;;;;;;139998;1258;22180;-80
2023/06/12 01:56:08;;;;;;;;;;;;;;;;;;139993;1258;22808;-80
2023/06/12 01:59:11;;;;;;;;;;;;;;;;;;140027;1251;22220;-81
2023/06/12 02:02:12;;;;;;;;;;;;;;;;;;139970;1258;22197;-81
2023/06/12 02:05:13;;;;;;;;;;;;;;;;;;139989;1258;22245;-81
2023/06/12 02:08:14;;;;;;;;;;;;;;;;;;139990;1258;22318;-81
2023/06/12 02:11:16;;;;;;;;;;;;;;;;;;140007;1258;22456;-81
2023/06/12 02:14:17;;;;;;;;;;;;;;;;;;140012;1258;22280;-80
2023/06/12 02:17:19;;;;;;;;;;;;;;;;;;139970;1258;22177;-79
2023/06/12 02:20:20;;;;;;;;;;;;;;;;;;139995;1258;22262;-80
2023/06/12 02:23:21;;;;;;;;;;;;;;;;;;140130;1258;22186;-79
2023/06/12 02:26:22;;;;;;;;;;;;;;;;;;140129;1258;22236;-81
2023/06/12 02:29:25;;;;;;;;;;;;;;;;;;140120;1258;22271;-80
2023/06/12 02:32:27;;;;;;;;;;;;;;;;;;140102;1258;22245;-80
2023/06/12 02:35:28;;;;;;;;;;;;;;;;;;140096;1258;22287;-80
2023/06/12 02:38:29;;;;;;;;;;;;;;;;;;140103;1258;22353;-80
2023/06/12 02:41:30;;;;;;;;;;;;;;;;;;140105;1258;22153;-80
2023/06/12 02:44:31;;;;;;;;;;;;;;;;;;140085;1258;22263;-81
2023/06/12 02:47:32;;;;;;;;;;;;;;;;;;140015;1257;22228;-79
2023/06/12 02:50:33;;;;;;;;;;;;;;;;;;139997;1258;22246;-80
2023/06/12 02:53:34;;;;;;;;;;;;;;;;;;139995;1258;22169;-79
2023/06/12 02:56:38;;;;;;;;;;;;;;;;;;139988;1258;22274;-80
2023/06/12 02:59:39;;;;;;;;;;;;;;;;;;139983;1258;22657;-79
2023/06/12 03:02:42;;;;;;;;;;;;;;;;;;139999;1258;22603;-79
2023/06/12 03:05:44;;;;;;;;;;;;;;;;;;140019;1258;24125;-79
2023/06/12 03:08:45;;;;;;;;;;;;;;;;;;140010;1258;22264;-80
2023/06/12 03:11:46;;;;;;;;;;;;;;;;;;140006;1258;22179;-80
2023/06/12 03:14:49;;;;;;;;;;;;;;;;;;139968;1258;22271;-77
2023/06/12 03:17:50;;;;;;;;;;;;;;;;;;139931;1258;22177;-78
2023/06/12 03:20:51;;;;;;;;;;;;;;;;;;140006;1258;22167;-78
2023/06/12 03:23:52;;;;;;;;;;;;;;;;;;140056;1258;22261;-79
2023/06/12 03:26:54;;;;;;;;;;;;;;;;;;140048;1258;22227;-78
2023/06/12 03:29:55;;;;;;;;;;;;;;;;;;140011;1258;22162;-79
2023/06/12 03:32:57;;;;;;;;;;;;;;;;;;139966;1258;22258;-80
2023/06/12 03:35:58;;;;;;;;;;;;;;;;;;139909;1258;22460;-80
2023/06/12 03:38:59;;;;;;;;;;;;;;;;;;139958;1258;22737;-79
2023/06/12 03:42:00;;;;;;;;;;;;;;;;;;139944;1258;22250;-77
2023/06/12 03:45:03;;;;;;;;;;;;;;;;;;139895;1258;22268;-78
2023/06/12 03:48:04;;;;;;;;;;;;;;;;;;139873;1258;22241;-79
2023/06/12 03:51:05;;;;;;;;;;;;;;;;;;139840;1258;22737;-79
2023/06/12 03:54:06;;;;;;;;;;;;;;;;;;139804;1258;22698;-78
2023/06/12 03:57:07;;;;;;;;;;;;;;;;;;139859;1257;22262;-78
2023/06/12 04:00:08;;;;;;;;;;;;;;;;;;139854;1257;22355;-78
2023/06/12 04:03:10;;;;;;;;;;;;;;;;;;139852;1258;22263;-79
2023/06/12 04:06:12;;;;;;;;;;;;;;;;;;139877;1258;22381;-79
2023/06/12 04:09:14;;;;;;;;;;;;;;;;;;139831;1251;22688;-78
2023/06/12 04:12:15;;;;;;;;;;;;;;;;;;139899;1258;22299;-79
2023/06/12 04:15:16;;;;;;;;;;;;;;;;;;139868;1258;22316;-77
2023/06/12 04:18:19;;;;;;;;;;;;;;;;;;139825;1257;22159;-78
2023/06/12 04:21:21;;;;;;;;;;;;;;;;;;139869;1258;22175;-78
2023/06/12 04:24:22;;;;;;;;;;;;;;;;;;139876;1257;22283;-77
2023/06/12 04:27:23;;;;;;;;;;;;;;;;;;139828;1257;22161;-79
2023/06/12 04:30:25;;;;;;;;;;;;;;;;;;139868;1258;22618;-79
2023/06/12 04:33:30;;;;;;;;;;;;;;;;;;139833;1258;22260;-78
2023/06/12 04:36:33;;;;;;;;;;;;;;;;;;139829;1258;22381;-78
2023/06/12 04:39:34;;;;;;;;;;;;;;;;;;139843;1257;22278;-79
2023/06/12 04:42:36;;;;;;;;;;;;;;;;;;139828;1258;22253;-80
2023/06/12 04:45:37;;;;;;;;;;;;;;;;;;139880;1258;22520;-80
2023/06/12 04:48:41;;;;;;;;;;;;;;;;;;139777;1258;22184;-80
2023/06/12 04:51:43;;;;;;;;;;;;;;;;;;139839;1258;22152;-83
2023/06/12 04:54:47;;;;;;;;;;;;;;;;;;139801;1257;22691;-82
2023/06/12 04:57:52;;;;;;;;;;;;;;;;;;139838;1257;22196;-80
2023/06/12 05:00:55;;;;;;;;;;;;;;;;;;139937;1258;22579;-82
2023/06/12 05:03:56;;;;;;;;;;;;;;;;;;139955;1258;22194;-84
2023/06/12 05:06:57;;;;;;;;;;;;;;;;;;139755;1258;241765;-81
2023/06/12 05:09:58;;;;;;;;;;;;;;;;;;139936;1258;22267;-78
2023/06/12 05:13:00;;;;;;;;;;;;;;;;;;139804;1257;22798;-79
2023/06/12 05:16:01;;;;;;;;;;;;;;;;;;139843;1257;22536;-80
2023/06/12 05:19:02;;;;;;;;;;;;;;;;;;139877;1258;22321;-81
2023/06/12 05:22:03;;;;;;;;;;;;;;;;;;139909;1258;22218;-81
2023/06/12 05:25:04;;;;;;;;;;;;;;;;;;139877;1257;22285;-81
2023/06/12 05:28:06;;;;;;;;;;;;;;;;;;139907;1257;22375;-83
2023/06/12 05:31:08;;;;;;;;;;;;;;;;;;139930;1258;22162;-82
2023/06/12 05:34:09;;;;;;;;;;;;;;;;;;139932;1257;22294;-81
2023/06/12 05:37:12;;;;;;;;;;;;;;;;;;139925;1258;22344;-82
2023/06/12 05:40:15;;;;;;;;;;;;;;;;;;139906;1258;22261;-83
2023/06/12 05:43:16;;;;;;;;;;;;;;;;;;139938;1258;22178;-82
2023/06/12 05:46:18;;;;;;;;;;;;;;;;;;139951;1258;22320;-83
2023/06/12 05:49:21;;;;;;;;;;;;;;;;;;139936;1258;22375;-85
2023/06/12 05:52:25;;;;;;;;;;;;;;;;;;139934;1258;22288;-83
2023/06/12 05:55:27;;;;;;;;;;;;;;;;;;139929;1258;22783;-82
2023/06/12 05:58:28;;;;;;;;;;;;;;;;;;139854;1258;22177;-83
2023/06/12 06:01:31;;;;;;;;;;;;;;;;;;139898;1258;22242;-82
2023/06/12 06:04:32;;;;;;;;;;;;;;;;;;139884;1254;22241;-82
2023/06/12 06:07:35;;;;;;;;;;;;;;;;;;139882;1258;22337;-81
2023/06/12 06:10:40;;;;;;;;;;;;;;;;;;139820;1258;22280;-83
2023/06/12 06:13:43;;;;;;;;;;;;;;;;;;139818;1258;22545;-87
2023/06/12 06:16:50;;;;;;;;;;;;;;;;;;139846;1258;22253;-83
2023/06/12 06:19:51;;;;;;;;;;;;;;;;;;139869;1258;22657;-80
2023/06/12 06:22:52;;;;;;;;;;;;;;;;;;139862;1257;22235;-84
2023/06/12 06:25:53;;;;;;;;;;;;;;;;;;139865;1258;22789;-83
2023/06/12 06:28:55;;;;;;;;;;;;;;;;;;139874;1258;22178;-84
2023/06/12 06:31:57;;;;;;;;;;;;;;;;;;139875;1258;22171;-83
2023/06/12 06:34:58;;;;;;;;;;;;;;;;;;139809;1258;22383;-83
2023/06/12 06:38:00;;;;;;;;;;;;;;;;;;139767;1258;22424;-84
2023/06/12 06:41:05;;;;;;;;;;;;;;;;;;139903;1258;22189;-84
2023/06/12 06:44:08;;;;;;;;;;;;;;;;;;139857;1257;22280;-84
2023/06/12 06:47:09;;;;;;;;;;;;;;;;;;139869;1254;22168;-79
2023/06/12 06:50:10;;;;;;;;;;;;;;;;;;139858;1258;22175;-84
2023/06/12 06:53:12;;;;;;;;;;;;;;;;;;139890;1257;22665;-86
2023/06/12 06:56:16;;;;;;;;;;;;;;;;;;139977;1258;22312;-84
2023/06/12 06:59:21;;;;;;;;;;;;;;;;;;139918;1257;22346;-83
2023/06/12 07:02:25;;;;;;;;;;;;;;;;;;139940;1258;22305;-84
2023/06/12 07:05:27;;;;;;;;;;;;;;;;;;139946;1258;22802;-84
2023/06/12 07:08:28;;;;;;;;;;;;;;;;;;139994;1257;22804;-83
2023/06/12 07:11:29;;;;;;;;;;;;;;;;;;139989;1257;22268;-83
2023/06/12 07:14:31;;;;;;;;;;;;;;;;;;139946;1257;22201;-82
2023/06/12 07:17:32;;;;;;;;;;;;;;;;;;139919;1257;22353;-83
2023/06/12 07:20:36;;;;;;;;;;;;;;;;;;139833;1258;22365;-83
2023/06/12 07:23:39;;;;;;;;;;;;;;;;;;139843;1258;22337;-84
2023/06/12 07:26:40;;;;;;;;;;;;;;;;;;139909;1254;22143;-83
2023/06/12 07:29:42;;;;;;;;;;;;;;;;;;139804;1258;22259;-84
2023/06/12 07:32:43;;;;;;;;;;;;;;;;;;139849;1257;23560;-84
2023/06/12 07:35:44;;;;;;;;;;;;;;;;;;139849;1258;22157;-85
2023/06/12 07:38:46;;;;;;;;;;;;;;;;;;139821;1258;22753;-83
2023/06/12 07:41:47;;;;;;;;;;;;;;;;;;139971;1258;22174;-84
2023/06/12 07:44:48;;;;;;;;;;;;;;;;;;139842;1258;22254;-84
2023/06/12 07:47:57;;;;;;;;;;;;;;;;;;139813;1257;22404;-83
2023/06/12 07:50:58;;;;;;;;;;;;;;;;;;139803;1258;22320;-85
2023/06/12 07:53:59;;;;;;;;;;;;;;;;;;139868;1257;22234;-85
2023/06/12 07:57:01;;;;;;;;;;;;;;;;;;139876;1258;22278;-85
2023/06/12 08:00:05;;;;;;;;;;;;;;;;;;139818;1256;22752;-84
2023/06/12 08:03:08;;;;;;;;;;;;;;;;;;139819;1258;22282;-84
2023/06/12 08:06:10;;;;;;;;;;;;;;;;;;139845;1258;22565;-84
2023/06/12 08:09:11;;;;;;;;;;;;;;;;;;139878;1258;22522;-84
2023/06/12 08:12:13;;;;;;;;;;;;;;;;;;139827;1258;22266;-84
2023/06/12 08:15:15;;;;;;;;;;;;;;;;;;139829;1258;22273;-84
2023/06/12 08:18:22;;;;;;;;;;;;;;;;;;139837;1258;22420;-79
2023/06/12 08:24:41;;;;;;;;;;;;;;;;;;139796;1258;22418;-85
2023/06/12 08:27:44;;;;;;;;;;;;;;;;;;139777;1258;23001;-85
2023/06/12 08:30:45;;;;;;;;;;;;;;;;;;139794;1258;22297;-85
2023/06/12 08:33:46;;;;;;;;;;;;;;;;;;139762;1258;22274;-83
2023/06/12 08:36:48;;;;;;;;;;;;;;;;;;139729;1258;22358;-84
2023/06/12 08:39:49;;;;;;;;;;;;;;;;;;139835;1256;22384;-83
2023/06/12 08:42:51;;;;;;;;;;;;;;;;;;139853;1258;22818;-86
2023/06/12 08:45:52;;;;;;;;;;;;;;;;;;139839;1258;22248;-84
2023/06/12 08:49:06;;;;;;;;;;;;;;;;;;139846;1258;22356;-84
2023/06/12 08:52:07;;;;;;;;;;;;;;;;;;139815;1257;22168;-86
2023/06/12 08:55:08;;;;;;;;;;;;;;;;;;139820;1258;22705;-85
2023/06/12 08:58:13;;;;;;;;;;;;;;;;;;139927;1258;22168;-85
2023/06/12 09:01:14;;;;;;;;;;;;;;;;;;139866;1254;22185;-84
2023/06/12 09:04:18;;;;;;;;;;;;;;;;;;139872;1258;22308;-85
2023/06/12 09:07:23;;;;;;;;;;;;;;;;;;139850;1258;22277;-86
2023/06/12 09:10:24;;;;;;;;;;;;;;;;;;139851;1258;22304;-85
2023/06/12 09:13:25;;;;;;;;;;;;;;;;;;139806;1257;22372;-85
2023/06/12 09:16:27;;;;;;;;;;;;;;;;;;139854;1258;22262;-83
2023/06/12 09:19:29;;;;;;;;;;;;;;;;;;139932;1258;22387;-86
2023/06/12 09:22:30;;;;;;;;;;;;;;;;;;139908;1258;22255;-85
2023/06/12 09:25:37;;;;;;;;;;;;;;;;;;139955;1258;22292;-86
2023/06/12 09:28:41;;;;;;;;;;;;;;;;;;139935;1258;22249;-83
2023/06/12 09:31:50;;;;;;;;;;;;;;;;;;139929;1256;22328;-86
2023/06/12 09:34:51;;;;;;;;;;;;;;;;;;139916;1258;22279;-83
2023/06/12 09:37:57;;;;;;;;;;;;;;;;;;139915;1258;22272;-83
2023/06/12 09:40:59;;;;;;;;;;;;;;;;;;139931;1258;22263;-84
2023/06/12 09:44:00;;;;;;;;;;;;;;;;;;139865;1258;22250;-82
2023/06/12 09:47:02;;;;;;;;;;;;;;;;;;139813;1258;22413;-83
2023/06/12 09:50:04;;;;;;;;;;;;;;;;;;139837;1258;22242;-81
2023/06/12 09:53:05;;;;;;;;;;;;;;;;;;139853;1258;22219;-85
2023/06/12 09:56:06;;;;;;;;;;;;;;;;;;139817;1258;22278;-82
2023/06/12 09:59:08;;;;;;;;;;;;;;;;;;139764;1257;22729;-84
2023/06/12 10:02:10;;;;;;;;;;;;;;;;;;139790;1258;22258;-83
2023/06/12 10:05:11;;;;;;;;;;;;;;;;;;139810;1258;22264;-84
2023/06/12 10:08:12;;;;;;;;;;;;;;;;;;139790;1257;22303;-86
2023/06/12 10:11:14;;;;;;;;;;;;;;;;;;139815;1257;22173;-84
2023/06/12 10:14:15;;;;;;;;;;;;;;;;;;139808;1258;22309;-84
2023/06/12 10:17:18;;;;;;;;;;;;;;;;;;139787;1258;22379;-85
2023/06/12 10:20:22;;;;;;;;;;;;;;;;;;139797;1258;22273;-84
2023/06/12 10:23:33;;;;;;;;;;;;;;;;;;139824;1258;22300;-84
2023/06/12 10:26:36;;;;;;;;;;;;;;;;;;139867;1257;22171;-85
2023/06/12 10:29:39;;;;;;;;;;;;;;;;;;139855;1258;22301;-86
2023/06/12 10:32:42;;;;;;;;;;;;;;;;;;139782;1256;22266;-84
2023/06/12 10:35:46;;;;;;;;;;;;;;;;;;139766;1258;22878;-84
2023/06/12 10:38:57;;;;;;;;;;;;;;;;;;139788;1258;22255;-82
2023/06/12 10:41:59;;;;;;;;;;;;;;;;;;139799;1258;22713;-84
2023/06/12 10:45:07;;;;;;;;;;;;;;;;;;139817;1257;22200;-85
2023/06/12 10:48:09;;;;;;;;;;;;;;;;;;139822;1258;22387;-84
2023/06/12 10:51:10;;;;;;;;;;;;;;;;;;139816;1257;22272;-85
2023/06/12 10:54:11;;;;;;;;;;;;;;;;;;139805;1258;22322;-84
2023/06/12 10:57:18;;;;;;;;;;;;;;;;;;139835;1258;22399;-86
2023/06/12 11:00:20;;;;;;;;;;;;;;;;;;139843;1258;22245;-85
2023/06/12 11:03:21;;;;;;;;;;;;;;;;;;139667;1258;22305;-86
2023/06/12 11:06:28;;;;;;;;;;;;;;;;;;139782;1258;22264;-85
2023/06/12 11:09:30;;;;;;;;;;;;;;;;;;139846;1257;22272;-84
2023/06/12 11:12:32;;;;;;;;;;;;;;;;;;139848;1258;22242;-85
2023/06/12 11:15:33;;;;;;;;;;;;;;;;;;139841;1257;22656;-85
2023/06/12 11:18:35;;;;;;;;;;;;;;;;;;139669;1258;22324;-85
2023/06/12 11:21:37;;;;;;;;;;;;;;;;;;139812;1258;22217;-85
2023/06/12 11:24:38;;;;;;;;;;;;;;;;;;139872;1254;22304;-84
2023/06/12 11:27:41;;;;;;;;;;;;;;;;;;139840;1258;22262;-84
2023/06/12 11:30:43;;;;;;;;;;;;;;;;;;139799;1258;23028;-82
2023/06/12 11:33:44;;;;;;;;;;;;;;;;;;139831;1258;22250;-85
2023/06/12 11:36:46;;;;;;;;;;;;;;;;;;139831;1256;22820;-84
2023/06/12 11:39:47;;;;;;;;;;;;;;;;;;139816;1257;22242;-85
2023/06/12 11:42:48;;;;;;;;;;;;;;;;;;139796;1258;22175;-84
2023/06/12 11:45:49;;;;;;;;;;;;;;;;;;139802;1258;22236;-85
2023/06/12 11:48:50;;;;;;;;;;;;;;;;;;139712;1258;22358;-84
2023/06/12 11:51:51;;;;;;;;;;;;;;;;;;139842;1258;22253;-85
2023/06/12 11:54:54;;;;;;;;;;;;;;;;;;139844;1258;22271;-85
2023/06/12 11:57:55;;;;;;;;;;;;;;;;;;139836;1258;22172;-85
2023/06/12 12:00:58;;;;;;;;;;;;;;;;;;139825;1254;22203;-85
2023/06/12 12:04:03;;;;;;;;;;;;;;;;;;139692;1258;22405;-85
2023/06/12 12:07:04;;;;;;;;;;;;;;;;;;139811;1258;22295;-83
2023/06/12 12:10:06;;;;;;;;;;;;;;;;;;139770;1258;22430;-85
2023/06/12 12:13:09;;;;;;;;;;;;;;;;;;139805;1257;22350;-83
2023/06/12 12:16:11;;;;;;;;;;;;;;;;;;139740;1258;22681;-83
2023/06/12 12:19:12;;;;;;;;;;;;;;;;;;139897;1258;22378;-84
2023/06/12 12:22:13;;;;;;;;;;;;;;;;;;139906;1258;22415;-84
2023/06/12 12:25:21;;;;;;;;;;;;;;;;;;139424;1258;22393;-86
2023/06/12 12:28:32;;;;;;;;;;;;;;;;;;139795;1257;22199;-85
2023/06/12 12:31:43;;;;;;;;;;;;;;;;;;139784;1258;22274;-82
2023/06/12 12:34:44;;;;;;;;;;;;;;;;;;139806;1257;22249;-85
2023/06/12 12:37:47;;;;;;;;;;;;;;;;;;139796;1258;22666;-84
2023/06/12 12:40:51;;;;;;;;;;;;;;;;;;139818;1258;22426;-84
2023/06/12 12:43:53;;;;;;;;;;;;;;;;;;139827;1258;22243;-80
2023/06/12 12:46:57;;;;;;;;;;;;;;;;;;139843;1258;22438;-84
2023/06/12 12:50:05;;;;;;;;;;;;;;;;;;139884;1258;22258;-84
2023/06/12 12:53:07;;;;;;;;;;;;;;;;;;139805;1258;22299;-83
2023/06/12 12:56:08;;;;;;;;;;;;;;;;;;139807;1258;22776;-83
2023/06/12 12:59:09;;;;;;;;;;;;;;;;;;139793;1258;22184;-83
2023/06/12 13:02:10;;;;;;;;;;;;;;;;;;139798;1258;22169;-83
2023/06/12 13:05:11;;;;;;;;;;;;;;;;;;139793;1258;22247;-84
2023/06/12 13:08:16;;;;;;;;;;;;;;;;;;139854;1258;22229;-84
2023/06/12 13:11:17;;;;;;;;;;;;;;;;;;139804;1258;22301;-84
2023/06/12 13:14:18;;;;;;;;;;;;;;;;;;139833;1258;22323;-82
2023/06/12 13:17:19;;;;;;;;;;;;;;;;;;139852;1258;22382;-83
2023/06/12 13:20:20;;;;;;;;;;;;;;;;;;139871;1258;22296;-82
2023/06/12 13:23:22;;;;;;;;;;;;;;;;;;139843;1258;22191;-82
2023/06/12 13:26:23;;;;;;;;;;;;;;;;;;139833;1258;22197;-81
2023/06/12 13:29:25;;;;;;;;;;;;;;;;;;139838;1258;22234;-82
2023/06/12 13:32:26;;;;;;;;;;;;;;;;;;139890;1258;22266;-85
2023/06/12 13:35:27;;;;;;;;;;;;;;;;;;139896;1258;22166;-83
2023/06/12 13:38:28;;;;;;;;;;;;;;;;;;139936;1258;23030;-84
2023/06/12 13:41:30;;;;;;;;;;;;;;;;;;139977;1258;22658;-83
2023/06/12 13:44:34;;;;;;;;;;;;;;;;;;140022;1258;22308;-86
2023/06/12 13:47:36;;;;;;;;;;;;;;;;;;139966;1258;22367;-82
2023/06/12 13:50:41;;;;;;;;;;;;;;;;;;139895;1258;22690;-82
2023/06/12 13:53:42;;;;;;;;;;;;;;;;;;139920;1258;22206;-82
2023/06/12 13:56:46;;;;;;;;;;;;;;;;;;139821;1258;22750;-83
2023/06/12 13:59:48;;;;;;;;;;;;;;;;;;139845;1258;22139;-82
2023/06/12 14:02:59;;;;;;;;;;;;;;;;;;139832;1258;22294;-88
2023/06/12 14:06:02;;;;;;;;;;;;;;;;;;139836;1258;22268;-83
2023/06/12 14:09:03;;;;;;;;;;;;;;;;;;139862;1258;22265;-83
2023/06/12 14:12:04;;;;;;;;;;;;;;;;;;139795;1258;22162;-82
2023/06/12 14:15:06;;;;;;;;;;;;;;;;;;139774;1258;22231;-83
2023/06/12 14:18:10;;;;;;;;;;;;;;;;;;139790;1258;22389;-83
2023/06/12 14:21:11;;;;;;;;;;;;;;;;;;139786;1258;22197;-84
2023/06/12 14:24:12;;;;;;;;;;;;;;;;;;139841;1258;22283;-82
2023/06/12 14:27:14;;;;;;;;;;;;;;;;;;139810;1258;22277;-83
2023/06/12 14:30:19;;;;;;;;;;;;;;;;;;139785;1258;22242;-82
2023/06/12 14:33:21;;;;;;;;;;;;;;;;;;139823;1258;22252;-84
2023/06/12 14:36:22;;;;;;;;;;;;;;;;;;139810;1258;22837;-81
2023/06/12 14:39:24;;;;;;;;;;;;;;;;;;139819;1258;22319;-83
2023/06/12 14:42:28;;;;;;;;;;;;;;;;;;139842;1258;22211;-83
2023/06/12 14:45:32;;;;;;;;;;;;;;;;;;139809;1258;22208;-82
2023/06/12 14:48:48;;;;;;;;;;;;;;;;;;139881;1258;22381;-83
2023/06/12 14:51:49;;;;;;;;;;;;;;;;;;139912;1254;22201;-84
2023/06/12 14:54:50;;;;;;;;;;;;;;;;;;139890;1257;22284;-85
2023/06/12 14:57:51;;;;;;;;;;;;;;;;;;139953;1258;22250;-84
2023/06/12 15:00:53;;;;;;;;;;;;;;;;;;139941;1258;22313;-85
2023/06/12 15:03:54;;;;;;;;;;;;;;;;;;140007;1258;22162;-84
2023/06/12 15:06:56;;;;;;;;;;;;;;;;;;139936;1258;22761;-85
2023/06/12 15:09:59;;;;;;;;;;;;;;;;;;139919;1258;22791;-83
2023/06/12 15:13:01;;;;;;;;;;;;;;;;;;139886;1258;22189;-83
2023/06/12 15:16:02;;;;;;;;;;;;;;;;;;139907;1258;22251;-84
2023/06/12 15:19:03;;;;;;;;;;;;;;;;;;139934;1258;22371;-84
2023/06/12 15:22:04;;;;;;;;;;;;;;;;;;139913;1258;22270;-82
2023/06/12 15:25:06;;;;;;;;;;;;;;;;;;139870;1258;22157;-84
2023/06/12 15:28:07;;;;;;;;;;;;;;;;;;139867;1258;22723;-84
2023/06/12 15:31:08;;;;;;;;;;;;;;;;;;139843;1258;22170;-84
2023/06/12 15:34:12;;;;;;;;;;;;;;;;;;139870;1258;22338;-83
2023/06/12 15:37:17;;;;;;;;;;;;;;;;;;139848;1258;22400;-84
2023/06/12 15:40:18;;;;;;;;;;;;;;;;;;139851;1258;22560;-83
2023/06/12 15:43:19;;;;;;;;;;;;;;;;;;139900;1258;22269;-84
2023/06/12 15:46:21;;;;;;;;;;;;;;;;;;139987;1258;22249;-84
2023/06/12 15:49:23;;;;;;;;;;;;;;;;;;139927;1258;22866;-83
2023/06/12 15:52:24;;;;;;;;;;;;;;;;;;139929;1258;22181;-83
2023/06/12 15:55:25;;;;;;;;;;;;;;;;;;139973;1258;22261;-83
2023/06/12 15:58:26;;;;;;;;;;;;;;;;;;139954;1258;22301;-83
2023/06/12 16:01:27;;;;;;;;;;;;;;;;;;139963;1258;22193;-84
2023/06/12 16:04:29;;;;;;;;;;;;;;;;;;139826;1258;22699;-83
2023/06/12 16:07:34;;;;;;;;;;;;;;;;;;139955;1258;22223;-84
2023/06/12 16:10:38;;;;;;;;;;;;;;;;;;139939;1258;22257;-84
2023/06/12 16:13:39;;;;;;;;;;;;;;;;;;139933;1258;22287;-83
2023/06/12 16:16:41;;;;;;;;;;;;;;;;;;139755;1258;22632;-83
2023/06/12 16:19:42;;;;;;;;;;;;;;;;;;139929;1257;22249;-83
2023/06/12 16:22:44;;;;;;;;;;;;;;;;;;139914;1258;22249;-83
2023/06/12 16:25:45;;;;;;;;;;;;;;;;;;139865;1258;22745;-83
2023/06/12 16:28:49;;;;;;;;;;;;;;;;;;139950;1251;23002;-85
2023/06/12 16:31:55;;;;;;;;;;;;;;;;;;139923;1258;22262;-83
2023/06/12 16:34:56;;;;;;;;;;;;;;;;;;139916;1258;22179;-83
2023/06/12 16:37:58;;;;;;;;;;;;;;;;;;139908;1258;22670;-83
2023/06/12 16:41:00;;;;;;;;;;;;;;;;;;139875;1258;22827;-83
2023/06/12 16:44:01;;;;;;;;;;;;;;;;;;139879;1258;22272;-83
2023/06/12 16:47:02;;;;;;;;;;;;;;;;;;139886;1258;22898;-83
2023/06/12 16:50:04;;;;;;;;;;;;;;;;;;139905;1258;22896;-81
2023/06/12 16:53:06;;;;;;;;;;;;;;;;;;139889;1258;22271;-83
2023/06/12 16:56:08;;;;;;;;;;;;;;;;;;139945;1258;22275;-83
2023/06/12 16:59:09;;;;;;;;;;;;;;;;;;139985;1250;22601;-83
2023/06/12 17:02:11;;;;;;;;;;;;;;;;;;139937;1258;22234;-83
2023/06/12 17:05:13;;;;;;;;;;;;;;;;;;139744;1258;299190;-83
2023/06/12 17:08:14;;;;;;;;;;;;;;;;;;139967;1253;22632;-84
2023/06/12 17:11:17;;;;;;;;;;;;;;;;;;139964;1258;22201;-84
2023/06/12 17:14:19;;;;;;;;;;;;;;;;;;139940;1254;22180;-84
2023/06/12 17:17:20;;;;;;;;;;;;;;;;;;139913;1258;22786;-83
2023/06/12 17:20:21;;;;;;;;;;;;;;;;;;139899;1258;22707;-83
2023/06/12 17:23:22;;;;;;;;;;;;;;;;;;139899;1258;22678;-83
2023/06/12 17:26:23;;;;;;;;;;;;;;;;;;139890;1250;22187;-83
2023/06/12 17:29:24;;;;;;;;;;;;;;;;;;139898;1258;22610;-83
2023/06/12 17:32:25;;;;;;;;;;;;;;;;;;139923;1258;22298;-85
2023/06/12 17:35:26;;;;;;;;;;;;;;;;;;139977;1258;22318;-84
2023/06/12 17:38:28;;;;;;;;;;;;;;;;;;139974;1257;22210;-84
2023/06/12 17:41:30;;;;;;;;;;;;;;;;;;139971;1258;22284;-82
2023/06/12 17:44:31;;;;;;;;;;;;;;;;;;139957;1258;22408;-83
2023/06/12 17:47:32;;;;;;;;;;;;;;;;;;139990;1258;22353;-82
2023/06/12 17:50:33;;;;;;;;;;;;;;;;;;139923;1258;22507;-82
2023/06/12 17:53:34;;;;;;;;;;;;;;;;;;140089;1258;22277;-82
2023/06/12 17:56:35;;;;;;;;;;;;;;;;;;140041;1258;22274;-82
2023/06/12 18:02:11;;;;;;;;;;;;;;;;;;133349;1311;544800;-81
2023/06/12 18:05:13;;;;;;;;;;;;;;;;;;136432;1286;22541;-81
2023/06/12 18:08:14;;;;;;;;;;;;;;;;;;136401;1286;22641;-81
2023/06/12 18:11:15;;;;;;;;;;;;;;;;;;136329;1286;22542;-81
2023/06/12 18:14:16;;;;;;;;;;;;;;;;;;132501;1284;5079023;-81
2023/06/12 18:17:17;;;;;;;;;;;;;;;;;;137364;1272;22543;-81
2023/06/12 18:20:19;;;;;;;;;;;;;;;;;;137164;1272;22839;-83
2023/06/12 18:23:20;;;;;;;;;;;;;;;;;;137233;1272;22612;-80
2023/06/12 18:26:21;;;;;;;;;;;;;;;;;;137488;1272;22365;-83
2023/06/12 18:29:22;;;;;;;;;;;;;;;;;;137639;1272;22405;-82
2023/06/12 18:32:23;;;;;;;;;;;;;;;;;;137502;1272;22504;-82
2023/06/12 18:35:25;;;;;;;;;;;;;;;;;;137457;1272;22521;-82
2023/06/12 18:38:27;;;;;;;;;;;;;;;;;;137038;1272;22530;-83
2023/06/12 18:41:28;;;;;;;;;;;;;;;;;;137145;1272;22506;-83
2023/06/12 18:44:29;;;;;;;;;;;;;;;;;;137159;1272;24205;-84
2023/06/12 18:47:30;;;;;;;;;;;;;;;;;;137562;1272;22944;-83
2023/06/12 18:50:31;;;;;;;;;;;;;;;;;;137244;1272;22517;-83
2023/06/12 18:53:32;;;;;;;;;;;;;;;;;;137167;1272;22454;-83
2023/06/12 18:56:38;;;;;;;;;;;;;;;;;;137544;1272;22488;-83
2023/06/12 18:59:39;;;;;;;;;;;;;;;;;;137075;1272;22914;-83
2023/06/12 19:02:40;;;;;;;;;;;;;;;;;;137235;1272;22530;-81
2023/06/12 19:05:41;;;;;;;;;;;;;;;;;;137594;1272;22476;-81
2023/06/12 19:08:42;;;;;;;;;;;;;;;;;;137114;1272;22704;-81
2023/06/12 19:11:43;;;;;;;;;;;;;;;;;;137139;1272;22563;-82
2023/06/12 19:14:44;;;;;;;;;;;;;;;;;;137495;1272;22527;-81
2023/06/12 19:17:45;;;;;;;;;;;;;;;;;;137145;1272;22509;-81
2023/06/12 19:20:46;;;;;;;;;;;;;;;;;;137224;1272;22471;-81
2023/06/12 19:23:48;;;;;;;;;;;;;;;;;;137302;1273;22506;-81
2023/06/12 19:26:49;;;;;;;;;;;;;;;;;;137483;1273;22518;-82
2023/06/12 19:29:51;;;;;;;;;;;;;;;;;;137234;1272;22474;-83
2023/06/12 19:32:52;;;;;;;;;;;;;;;;;;137228;1272;23386;-82
2023/06/12 19:35:55;;;;;;;;;;;;;;;;;;137582;1273;22504;-83
2023/06/12 19:38:57;;;;;;;;;;;;;;;;;;136894;1272;22578;-83
2023/06/12 19:41:58;;;;;;;;;;;;;;;;;;137259;1272;22534;-82
2023/06/12 19:44:59;;;;;;;;;;;;;;;;;;137620;1272;22537;-81
2023/06/12 19:48:02;;;;;;;;;;;;;;;;;;137407;1272;22475;-83
2023/06/12 19:51:03;;;;;;;;;;;;;;;;;;137358;1273;22497;-83
2023/06/12 19:54:04;;;;;;;;;;;;;;;;;;137589;1272;22617;-82
2023/06/12 19:57:06;;;;;;;;;;;;;;;;;;137394;1273;22476;-82
2023/06/12 20:00:07;;;;;;;;;;;;;;;;;;137360;1272;22484;-82
2023/06/12 20:03:08;;;;;;;;;;;;;;;;;;137637;1273;22391;-81
2023/06/12 20:06:09;;;;;;;;;;;;;;;;;;137474;1273;22484;-81
2023/06/12 20:09:10;;;;;;;;;;;;;;;;;;137493;1272;23463;-80
2023/06/12 20:12:12;;;;;;;;;;;;;;;;;;137456;1262;22539;-81
2023/06/12 20:15:13;;;;;;;;;;;;;;;;;;137504;1273;22458;-82
2023/06/12 20:18:14;;;;;;;;;;;;;;;;;;137106;1273;22966;-81
2023/06/12 20:21:16;;;;;;;;;;;;;;;;;;137290;1273;22598;-81
2023/06/12 20:24:17;;;;;;;;;;;;;;;;;;137609;1273;22337;-81
2023/06/12 20:27:19;;;;;;;;;;;;;;;;;;137209;1272;22603;-82